createdAt,value
2023-04-18T00:01:54.189Z,68.42
2023-04-18T00:06:58.976Z,68.66
2023-04-18T00:11:44.114Z,68.71
2023-04-18T00:16:29.588Z,68.61
2023-04-18T00:21:14.524Z,68.68
2023-04-18T00:25:59.848Z,68.77
2023-04-18T00:30:21.368Z,68.97
2023-04-18T00:35:27.340Z,68.89
2023-04-18T00:40:32.178Z,68.90
2023-04-18T00:44:57.215Z,69.00
2023-04-18T00:49:22.282Z,69.31
2023-04-18T00:54:08.742Z,69.62
2023-04-18T00:58:53.038Z,69.63
2023-04-18T01:03:19.028Z,69.27
2023-04-18T01:08:23.782Z,69.34
2023-04-18T01:13:10.085Z,69.29
2023-04-18T01:17:57.329Z,69.32
2023-04-18T01:22:42.417Z,69.47
2023-04-18T01:27:06.599Z,69.66
2023-04-18T01:31:30.959Z,69.65
2023-04-18T01:35:54.953Z,69.79
2023-04-18T01:40:18.854Z,69.94
2023-04-18T01:45:03.033Z,70.00
2023-04-18T01:49:48.972Z,70.14
2023-04-18T01:54:14.444Z,70.26
2023-04-18T01:58:58.584Z,70.27
2023-04-18T02:03:45.145Z,70.31
2023-04-18T02:08:12.332Z,70.48
2023-04-18T02:12:37.605Z,70.62
2023-04-18T02:17:01.704Z,70.40
2023-04-18T02:21:45.602Z,70.46
2023-04-18T02:26:35.875Z,70.40
2023-04-18T02:31:21.344Z,70.50
2023-04-18T02:36:08.439Z,70.44
2023-04-18T02:40:34.881Z,70.43
2023-04-18T02:44:59.897Z,70.78
2023-04-18T02:49:44.464Z,70.95
2023-04-18T02:54:21.194Z,71.03
2023-04-18T02:58:50.244Z,70.80
2023-04-18T03:03:21.870Z,70.82
2023-04-18T03:08:17.741Z,70.96
2023-04-18T03:12:58.213Z,70.81
2023-04-18T03:17:21.091Z,70.81
2023-04-18T03:22:07.201Z,70.86
2023-04-18T03:26:52.170Z,71.35
2023-04-18T03:31:17.784Z,71.06
2023-04-18T03:35:43.972Z,70.89
2023-04-18T03:40:27.892Z,70.85
2023-04-18T03:44:53.390Z,70.88
2023-04-18T03:49:17.364Z,71.24
2023-04-18T03:53:42.550Z,71.20
2023-04-18T03:58:26.919Z,71.24
2023-04-18T04:02:52.403Z,71.32
2023-04-18T04:07:17.263Z,71.04
2023-04-18T04:11:41.215Z,71.24
2023-04-18T04:16:07.388Z,70.91
2023-04-18T04:20:37.567Z,71.14
2023-04-18T04:25:21.551Z,71.27
2023-04-18T04:29:49.408Z,71.38
2023-04-18T04:34:54.248Z,71.18
2023-04-18T04:39:28.157Z,71.08
2023-04-18T04:44:28.583Z,70.97
2023-04-18T04:49:33.563Z,70.88
2023-04-18T04:54:17.506Z,70.76
2023-04-18T04:59:01.626Z,70.86
2023-04-18T05:03:47.186Z,71.11
2023-04-18T05:08:38.527Z,71.18
2023-04-18T05:13:05.453Z,71.26
2023-04-18T05:17:50.754Z,71.27
2023-04-18T05:22:15.249Z,71.31
2023-04-18T05:26:47.893Z,71.70
2023-04-18T05:31:53.032Z,71.87
2023-04-18T05:36:19.400Z,71.33
2023-04-18T05:40:45.531Z,70.89
2023-04-18T05:45:30.592Z,70.72
2023-04-18T05:50:13.466Z,70.48
2023-04-18T05:55:04.318Z,70.26
2023-04-18T05:59:49.162Z,70.20
2023-04-18T06:04:16.446Z,70.38
2023-04-18T06:09:00.894Z,70.35
2023-04-18T06:13:27.696Z,70.45
2023-04-18T06:18:19.408Z,70.50
2023-04-18T06:23:04.885Z,70.66
2023-04-18T06:27:31.369Z,70.85
2023-04-18T06:32:04.814Z,70.96
2023-04-18T06:36:30.029Z,70.97
2023-04-18T06:40:54.458Z,71.11
2023-04-18T06:45:20.399Z,71.45
2023-04-18T06:50:11.292Z,71.13
2023-04-18T06:54:55.558Z,70.73
2023-04-18T06:59:21.725Z,70.36
2023-04-18T07:03:49.788Z,70.29
2023-04-18T07:08:15.041Z,70.19
2023-04-18T07:12:40.129Z,70.26
2023-04-18T07:17:10.249Z,70.22
2023-04-18T07:22:14.087Z,69.84
2023-04-18T07:26:39.634Z,69.32
2023-04-18T07:31:04.750Z,69.03
2023-04-18T07:35:28.850Z,67.29
2023-04-18T07:39:53.812Z,66.63
2023-04-18T07:44:10.959Z,64.57
2023-04-18T07:48:34.833Z,62.26
2023-04-18T07:52:59.054Z,60.38
2023-04-18T07:57:26.128Z,57.80
2023-04-18T08:02:11.356Z,59.04
2023-04-18T08:07:15.264Z,55.95
2023-04-18T08:11:48.710Z,52.65
2023-04-18T08:16:17.776Z,52.39
2023-04-18T08:20:43.426Z,51.65
2023-04-18T08:25:10.582Z,48.78
2023-04-18T08:29:35.091Z,46.87
2023-04-18T08:34:02.602Z,45.92
2023-04-18T08:38:28.407Z,45.75
2023-04-18T08:42:53.329Z,41.66
2023-04-18T08:47:17.260Z,40.26
2023-04-18T08:51:41.106Z,38.48
2023-04-18T08:56:10.891Z,39.30
2023-04-18T09:00:39.345Z,39.71
2023-04-18T09:05:14.265Z,39.37
2023-04-18T09:09:38.248Z,39.25
2023-04-18T09:14:20.407Z,39.17
2023-04-18T09:18:51.647Z,39.29
2023-04-18T09:23:27.629Z,39.06
2023-04-18T09:28:19.843Z,38.09
2023-04-18T09:33:05.359Z,38.85
2023-04-18T09:37:51.910Z,38.00
2023-04-18T09:42:23.234Z,37.91
2023-04-18T09:46:49.285Z,36.56
2023-04-18T09:51:17.308Z,37.63
2023-04-18T09:55:41.657Z,37.24
2023-04-18T10:00:35.545Z,37.62
2023-04-18T10:05:03.158Z,38.46
2023-04-18T10:09:28.115Z,37.61
2023-04-18T10:13:53.374Z,37.29
2023-04-18T10:18:22.707Z,37.87
2023-04-18T10:22:51.038Z,38.07
2023-04-18T10:27:08.250Z,38.54
2023-04-18T10:31:42.063Z,36.51
2023-04-18T10:36:06.992Z,36.90
2023-04-18T10:40:16.035Z,36.82
2023-04-18T10:44:46.893Z,37.03
2023-04-18T10:49:27.807Z,36.63
2023-04-18T10:53:52.549Z,34.83
2023-04-18T10:58:25.659Z,35.42
2023-04-18T11:03:26.007Z,35.28
2023-04-18T11:07:50.868Z,36.21
2023-04-18T11:12:17.264Z,36.53
2023-04-18T11:16:41.633Z,36.79
2023-04-18T11:21:18.770Z,37.04
2023-04-18T11:25:52.868Z,37.13
2023-04-18T11:30:40.881Z,37.36
2023-04-18T11:35:05.489Z,37.83
2023-04-18T11:39:51.345Z,38.47
2023-04-18T11:44:37.482Z,37.68
2023-04-18T11:49:02.747Z,37.67
2023-04-18T11:53:27.767Z,37.78
2023-04-18T11:58:03.118Z,38.46
2023-04-18T12:02:43.443Z,38.61
2023-04-18T12:07:46.015Z,38.63
2023-04-18T12:12:11.000Z,38.48
2023-04-18T12:16:28.044Z,38.11
2023-04-18T12:21:43.308Z,36.49
2023-04-18T12:25:43.363Z,37.01
2023-04-18T12:30:11.556Z,37.19
2023-04-18T12:34:36.636Z,37.21
2023-04-18T12:39:05.813Z,37.80
2023-04-18T12:43:33.815Z,36.88
2023-04-18T12:48:02.354Z,37.56
2023-04-18T12:52:36.769Z,37.40
2023-04-18T12:57:23.910Z,37.75
2023-04-18T13:02:08.037Z,37.84
2023-04-18T13:06:34.071Z,38.21
2023-04-18T13:10:58.758Z,38.83
2023-04-18T13:15:25.885Z,38.84
2023-04-18T13:19:51.365Z,38.18
2023-04-18T13:24:16.346Z,38.81
2023-04-18T13:28:41.115Z,38.95
2023-04-18T13:33:05.157Z,38.79
2023-04-18T13:37:30.160Z,37.46
2023-04-18T13:42:01.943Z,37.69
2023-04-18T13:46:26.816Z,37.32
2023-04-18T13:50:51.244Z,37.13
2023-04-18T13:55:32.241Z,37.47
2023-04-18T13:59:56.548Z,37.78
2023-04-18T14:04:22.317Z,37.68
2023-04-18T14:08:48.083Z,37.81
2023-04-18T14:13:13.316Z,37.80
2023-04-18T14:18:21.328Z,37.64
2023-04-18T14:23:06.509Z,37.87
2023-04-18T14:27:50.331Z,37.67
2023-04-18T14:32:14.151Z,37.90
2023-04-18T14:36:43.761Z,38.13
2023-04-18T14:41:28.080Z,38.31
2023-04-18T14:45:54.259Z,38.85
2023-04-18T14:50:18.678Z,38.20
2023-04-18T14:54:43.605Z,38.29
2023-04-18T14:59:15.619Z,38.54
2023-04-18T15:04:00.655Z,38.45
2023-04-18T15:08:52.940Z,38.15
2023-04-18T15:13:41.064Z,37.75
2023-04-18T15:18:07.062Z,37.51
2023-04-18T15:22:30.755Z,37.43
2023-04-18T15:26:57.997Z,36.08
2023-04-18T15:31:27.972Z,35.92
2023-04-18T15:36:17.489Z,36.23
2023-04-18T15:41:03.613Z,36.69
2023-04-18T15:46:01.391Z,37.66
2023-04-18T15:50:27.724Z,37.94
2023-04-18T15:55:05.582Z,38.17
2023-04-18T15:59:31.578Z,38.25
2023-04-18T16:04:03.677Z,37.39
2023-04-18T16:08:37.520Z,36.31
2023-04-18T16:13:05.028Z,36.05
2023-04-18T16:17:33.234Z,36.47
2023-04-18T16:22:01.980Z,36.80
2023-04-18T16:26:31.661Z,36.44
2023-04-18T16:30:57.485Z,36.70
2023-04-18T16:35:42.500Z,36.95
2023-04-18T16:40:10.131Z,37.08
2023-04-18T16:44:40.013Z,37.28
2023-04-18T16:49:32.439Z,37.96
2023-04-18T16:54:37.264Z,37.87
2023-04-18T16:59:07.160Z,38.38
2023-04-18T17:03:52.627Z,39.45
2023-04-18T17:08:24.307Z,39.83
2023-04-18T17:12:52.308Z,40.12
2023-04-18T17:17:19.264Z,40.73
2023-04-18T17:21:43.159Z,41.04
2023-04-18T17:26:13.676Z,41.72
2023-04-18T17:31:01.629Z,41.53
2023-04-18T17:35:47.733Z,40.62
2023-04-18T17:40:51.653Z,40.12
2023-04-18T17:45:38.021Z,40.36
2023-04-18T17:50:12.035Z,40.24
2023-04-18T17:54:39.468Z,39.71
2023-04-18T17:59:25.411Z,40.31
2023-04-18T18:04:24.229Z,40.43
2023-04-18T18:08:52.790Z,41.17
2023-04-18T18:13:31.772Z,41.33
2023-04-18T18:17:55.886Z,41.69
2023-04-18T18:22:19.908Z,42.28
2023-04-18T18:26:44.297Z,42.59
2023-04-18T18:31:10.915Z,43.11
2023-04-18T18:35:36.158Z,43.30
2023-04-18T18:40:22.118Z,43.37
2023-04-18T18:45:08.619Z,44.01
2023-04-18T18:50:17.168Z,44.41
2023-04-18T18:55:07.199Z,44.59
2023-04-18T18:59:54.528Z,44.82
2023-04-18T19:04:38.020Z,44.92
2023-04-18T19:09:08.332Z,44.96
2023-04-18T19:13:32.256Z,45.01
2023-04-18T19:17:57.965Z,45.04
2023-04-18T19:22:21.789Z,45.32
2023-04-18T19:26:56.868Z,45.40
2023-04-18T19:32:05.057Z,45.47
2023-04-18T19:37:00.662Z,45.63
2023-04-18T19:42:05.475Z,45.84
2023-04-18T19:46:52.288Z,45.91
2023-04-18T19:51:56.341Z,46.06
2023-04-18T19:56:21.708Z,46.05
2023-04-18T20:00:49.720Z,46.27
2023-04-18T20:05:16.111Z,46.59
2023-04-18T20:10:07.430Z,46.38
2023-04-18T20:14:40.006Z,46.37
2023-04-18T20:19:26.403Z,46.14
2023-04-18T20:24:39.411Z,45.89
2023-04-18T20:29:40.924Z,45.98
2023-04-18T20:34:48.018Z,45.74
2023-04-18T20:39:30.824Z,45.82
2023-04-18T20:44:40.378Z,45.51
2023-04-18T20:49:05.414Z,45.87
2023-04-18T20:53:31.337Z,45.76
2023-04-18T20:57:56.279Z,45.36
2023-04-18T21:02:21.487Z,45.44
2023-04-18T21:06:47.593Z,44.82
2023-04-18T21:11:17.299Z,44.82
2023-04-18T21:15:42.960Z,44.45
2023-04-18T21:20:07.888Z,44.57
2023-04-18T21:24:33.437Z,44.49
2023-04-18T21:28:59.355Z,44.09
2023-04-18T21:33:45.847Z,44.40
2023-04-18T21:38:39.504Z,44.59
2023-04-18T21:43:04.864Z,44.45
2023-04-18T21:47:51.344Z,44.47
2023-04-18T21:52:23.849Z,44.83
2023-04-18T21:57:05.030Z,45.11
2023-04-18T22:01:34.779Z,44.73
2023-04-18T22:06:48.114Z,44.95
2023-04-18T22:11:17.209Z,45.18
2023-04-18T22:15:47.273Z,45.29
2023-04-18T22:20:52.119Z,45.34
2023-04-18T22:25:37.108Z,45.40
2023-04-18T22:30:15.108Z,45.43
2023-04-18T22:34:42.492Z,45.62
2023-04-18T22:38:47.657Z,46.10
2023-04-18T22:43:31.827Z,45.97
2023-04-18T22:48:03.390Z,45.87
2023-04-18T22:52:29.736Z,45.84
2023-04-18T22:57:00.560Z,45.84
2023-04-18T23:01:33.299Z,45.81
2023-04-18T23:06:02.939Z,45.85
2023-04-18T23:10:32.623Z,45.89
2023-04-18T23:14:56.598Z,46.03
2023-04-18T23:19:40.574Z,46.24
2023-04-18T23:24:05.571Z,46.38
2023-04-18T23:28:30.753Z,46.57
2023-04-18T23:32:55.819Z,46.69
2023-04-18T23:37:20.785Z,46.77
2023-04-18T23:41:48.773Z,46.99
2023-04-18T23:46:13.297Z,47.38
2023-04-18T23:50:37.581Z,47.47
2023-04-18T23:55:03.523Z,47.92
2023-04-18T23:59:31.445Z,48.75
